createdAt,value
2022-09-28T00:00:47.973Z,99419.22
2022-09-28T00:03:20.257Z,99420.72
2022-09-28T00:05:50.942Z,99422.06
2022-09-28T00:08:27.895Z,99414.78
2022-09-28T00:11:05.537Z,99422.56
2022-09-28T00:13:35.742Z,99419.66
2022-09-28T00:16:07.965Z,99422.41
2022-09-28T00:18:38.001Z,99421.25
2022-09-28T00:21:13.586Z,99426.91
2022-09-28T00:24:01.390Z,99418.56
2022-09-28T00:26:38.475Z,99427.44
2022-09-28T00:29:17.566Z,99431.06
2022-09-28T00:31:52.681Z,99427.44
2022-09-28T00:34:31.818Z,99427.34
2022-09-28T00:37:09.372Z,99429.00
2022-09-28T00:39:43.413Z,99430.59
2022-09-28T00:42:26.716Z,99424.53
2022-09-28T00:45:00.100Z,99421.78
2022-09-28T00:48:11.164Z,99422.19
2022-09-28T00:50:43.108Z,99420.53
2022-09-28T00:53:27.898Z,99426.19
2022-09-28T00:56:15.108Z,99429.47
2022-09-28T00:58:50.075Z,99417.31
2022-09-28T01:01:23.333Z,99414.06
2022-09-28T01:04:01.545Z,99414.00
2022-09-28T01:06:38.472Z,99417.19
2022-09-28T01:09:15.748Z,99412.84
2022-09-28T01:11:50.792Z,99399.69
2022-09-28T01:14:29.099Z,99392.19
2022-09-28T01:17:36.737Z,99393.34
2022-09-28T01:20:34.044Z,99389.72
2022-09-28T01:23:33.190Z,99388.41
2022-09-28T01:26:38.061Z,99381.34
2022-09-28T01:29:44.183Z,99384.78
2022-09-28T01:32:26.639Z,99385.13
2022-09-28T01:35:03.473Z,99395.31
2022-09-28T01:37:52.335Z,99403.72
2022-09-28T01:40:33.154Z,99412.59
2022-09-28T01:43:24.710Z,99403.03
2022-09-28T01:46:10.560Z,99409.16
2022-09-28T01:49:27.889Z,99402.94
2022-09-28T01:52:09.178Z,99397.72
2022-09-28T01:55:22.168Z,99398.84
2022-09-28T01:58:06.352Z,99406.13
2022-09-28T02:00:41.788Z,99404.19
2022-09-28T02:03:19.813Z,99404.13
2022-09-28T02:06:05.929Z,99402.59
2022-09-28T02:08:53.961Z,99406.56
2022-09-28T02:11:37.281Z,99402.50
2022-09-28T02:14:14.654Z,99407.91
2022-09-28T02:16:50.958Z,99413.13
2022-09-28T02:19:34.008Z,99401.78
2022-09-28T02:22:25.777Z,99401.50
2022-09-28T02:25:30.111Z,99393.00
2022-09-28T02:28:08.817Z,99402.81
2022-09-28T02:30:44.087Z,99391.22
2022-09-28T02:33:25.383Z,99397.66
2022-09-28T02:36:00.405Z,99395.28
2022-09-28T02:38:34.813Z,99401.75
2022-09-28T02:41:40.717Z,99398.03
2022-09-28T02:44:40.464Z,99399.28
2022-09-28T02:47:29.683Z,99397.25
2022-09-28T02:50:29.110Z,99392.81
2022-09-28T02:53:08.576Z,99389.63
2022-09-28T02:55:55.566Z,99392.38
2022-09-28T02:58:47.935Z,99395.22
2022-09-28T03:01:38.743Z,99401.38
2022-09-28T03:04:37.587Z,99409.44
2022-09-28T03:07:37.066Z,99411.53
2022-09-28T03:10:22.238Z,99411.91
2022-09-28T03:12:56.645Z,99405.88
2022-09-28T03:15:38.124Z,99402.41
2022-09-28T03:18:07.936Z,99393.84
2022-09-28T03:20:38.046Z,99395.00
2022-09-28T03:23:24.386Z,99385.44
2022-09-28T03:26:01.064Z,99385.06
2022-09-28T03:28:31.026Z,99385.44
2022-09-28T03:31:12.895Z,99386.81
2022-09-28T03:33:45.746Z,99383.16
2022-09-28T03:36:17.687Z,99384.34
2022-09-28T03:38:55.822Z,99371.41
2022-09-28T03:41:30.065Z,99376.69
2022-09-28T03:44:03.571Z,99377.81
2022-09-28T03:46:36.138Z,99378.59
2022-09-28T03:49:10.427Z,99387.97
2022-09-28T03:51:43.959Z,99393.22
2022-09-28T03:54:13.516Z,99383.97
2022-09-28T03:56:53.287Z,99388.47
2022-09-28T03:59:26.891Z,99395.34
2022-09-28T04:02:00.228Z,99392.47
2022-09-28T04:04:33.953Z,99379.53
2022-09-28T04:07:04.408Z,99383.22
2022-09-28T04:09:37.607Z,99383.97
2022-09-28T04:12:09.848Z,99386.34
2022-09-28T04:14:40.209Z,99373.53
2022-09-28T04:17:12.794Z,99373.53
2022-09-28T04:19:48.706Z,99379.97
2022-09-28T04:22:30.995Z,99372.00
2022-09-28T04:25:07.647Z,99372.66
2022-09-28T04:27:58.693Z,99372.69
2022-09-28T04:30:29.555Z,99368.28
2022-09-28T04:33:03.134Z,99363.78
2022-09-28T04:35:45.112Z,99368.75
2022-09-28T04:38:41.486Z,99371.56
2022-09-28T04:41:12.334Z,99367.88
2022-09-28T04:43:45.847Z,99364.66
2022-09-28T04:46:19.526Z,99358.13
2022-09-28T04:49:01.436Z,99367.88
2022-09-28T04:52:03.753Z,99371.19
2022-09-28T04:54:35.845Z,99365.91
2022-09-28T04:57:07.062Z,99366.00
2022-09-28T04:59:39.788Z,99368.44
2022-09-28T05:02:15.460Z,99369.16
2022-09-28T05:05:49.058Z,99363.28
2022-09-28T05:08:48.618Z,99367.22
2022-09-28T05:11:21.400Z,99366.41
2022-09-28T05:13:54.514Z,99376.16
2022-09-28T05:16:27.992Z,99368.75
2022-09-28T05:19:18.906Z,99378.44
2022-09-28T05:21:53.008Z,99375.19
2022-09-28T05:24:29.683Z,99377.72
2022-09-28T05:26:57.463Z,99374.91
2022-09-28T05:29:32.200Z,99373.31
2022-09-28T05:32:40.468Z,99377.34
2022-09-28T05:35:35.502Z,99378.59
2022-09-28T05:38:11.341Z,99381.81
2022-09-28T05:40:54.291Z,99371.66
2022-09-28T05:43:27.459Z,99379.75
2022-09-28T05:46:07.800Z,99371.34
2022-09-28T05:48:45.215Z,99381.09
2022-09-28T05:51:21.532Z,99375.34
2022-09-28T05:53:50.109Z,99371.78
2022-09-28T05:56:20.172Z,99367.00
2022-09-28T05:58:58.497Z,99368.53
2022-09-28T06:01:40.522Z,99371.34
2022-09-28T06:04:22.582Z,99375.69
2022-09-28T06:06:55.078Z,99371.78
2022-09-28T06:09:28.810Z,99371.28
2022-09-28T06:12:22.049Z,99364.91
2022-09-28T06:15:02.854Z,99369.94
2022-09-28T06:17:39.960Z,99355.25
2022-09-28T06:20:31.412Z,99359.81
2022-09-28T06:23:16.703Z,99365.56
2022-09-28T06:25:48.192Z,99361.81
2022-09-28T06:28:17.780Z,99355.59
2022-09-28T06:30:52.091Z,99358.53
2022-09-28T06:33:20.833Z,99365.22
2022-09-28T06:35:52.174Z,99364.13
2022-09-28T06:38:23.806Z,99360.84
2022-09-28T06:40:57.139Z,99361.66
2022-09-28T06:43:34.145Z,99360.03
2022-09-28T06:46:17.469Z,99355.66
2022-09-28T06:48:56.117Z,99355.72
2022-09-28T06:52:05.082Z,99351.88
2022-09-28T06:54:55.809Z,99356.69
2022-09-28T06:57:41.091Z,99350.63
2022-09-28T07:00:13.225Z,99354.78
2022-09-28T07:02:46.960Z,99346.34
2022-09-28T07:05:37.270Z,99337.50
2022-09-28T07:08:29.177Z,99342.03
2022-09-28T07:11:27.336Z,99337.31
2022-09-28T07:14:46.801Z,99339.03
2022-09-28T07:17:17.787Z,99334.63
2022-09-28T07:19:53.975Z,99338.16
2022-09-28T07:22:42.188Z,99337.56
2022-09-28T07:25:19.684Z,99331.84
2022-09-28T07:28:03.167Z,99333.66
2022-09-28T07:30:47.188Z,99338.75
2022-09-28T07:33:20.391Z,99324.41
2022-09-28T07:35:57.344Z,99326.78
2022-09-28T07:38:28.966Z,99334.84
2022-09-28T07:41:15.487Z,99344.44
2022-09-28T07:43:54.887Z,99333.94
2022-09-28T07:46:28.555Z,99335.13
2022-09-28T07:49:12.472Z,99345.41
2022-09-28T07:52:18.775Z,99341.31
2022-09-28T07:55:11.647Z,99353.84
2022-09-28T07:58:01.252Z,99352.94
2022-09-28T08:01:00.381Z,99359.22
2022-09-28T08:03:29.152Z,99358.75
2022-09-28T08:06:03.633Z,99364.22
2022-09-28T08:08:36.296Z,99363.88
2022-09-28T08:11:10.733Z,99361.19
2022-09-28T08:13:53.025Z,99363.56
2022-09-28T08:16:43.924Z,99354.53
2022-09-28T08:19:25.668Z,99365.09
2022-09-28T08:22:05.223Z,99368.25
2022-09-28T08:24:39.041Z,99364.72
2022-09-28T08:27:12.684Z,99360.97
2022-09-28T08:29:46.650Z,99365.03
2022-09-28T08:32:42.676Z,99358.13
2022-09-28T08:36:04.709Z,99362.25
2022-09-28T08:38:59.241Z,99356.81
2022-09-28T08:42:01.096Z,99364.16
2022-09-28T08:45:18.100Z,99360.31
2022-09-28T08:48:34.188Z,99361.88
2022-09-28T08:51:42.477Z,99364.66
2022-09-28T08:55:05.444Z,99366.13
2022-09-28T08:57:54.331Z,99365.44
2022-09-28T09:00:59.881Z,99371.63
2022-09-28T09:03:44.954Z,99380.13
2022-09-28T09:06:51.449Z,99382.19
2022-09-28T09:10:16.638Z,99382.59
2022-09-28T09:13:17.643Z,99389.31
2022-09-28T09:15:58.808Z,99377.16
2022-09-28T09:19:02.328Z,99370.41
2022-09-28T09:22:27.279Z,99367.13
2022-09-28T09:25:20.527Z,99357.38
2022-09-28T09:28:27.702Z,99354.00
2022-09-28T09:31:22.809Z,99352.53
2022-09-28T09:34:24.828Z,99350.13
2022-09-28T09:37:59.765Z,99352.97
2022-09-28T09:44:19.381Z,99348.75
2022-09-28T09:47:44.501Z,99348.03
2022-09-28T09:50:40.734Z,99345.34
2022-09-28T09:53:38.607Z,99342.63
2022-09-28T09:56:44.617Z,99340.56
2022-09-28T09:59:44.731Z,99343.44
2022-09-28T10:02:45.162Z,99336.53
2022-09-28T10:05:37.932Z,99329.44
2022-09-28T10:08:09.391Z,99331.31
2022-09-28T10:11:08.660Z,99325.50
2022-09-28T10:13:44.813Z,99321.41
2022-09-28T10:16:40.181Z,99322.16
2022-09-28T10:19:14.869Z,99317.59
2022-09-28T10:22:10.853Z,99319.28
2022-09-28T10:24:51.350Z,99329.13
2022-09-28T10:27:27.555Z,99328.53
2022-09-28T10:30:00.864Z,99331.16
2022-09-28T10:32:44.865Z,99327.59
2022-09-28T10:35:29.939Z,99328.09
2022-09-28T10:38:05.642Z,99322.19
2022-09-28T10:41:12.074Z,99323.97
2022-09-28T10:43:57.428Z,99324.19
2022-09-28T10:46:29.524Z,99316.34
2022-09-28T10:49:03.703Z,99321.72
2022-09-28T10:51:48.291Z,99317.53
2022-09-28T10:54:29.505Z,99316.84
2022-09-28T10:57:06.283Z,99314.00
2022-09-28T10:59:50.577Z,99309.09
2022-09-28T11:02:38.556Z,99314.13
2022-09-28T11:05:22.168Z,99301.56
2022-09-28T11:07:59.423Z,99300.00
2022-09-28T11:10:34.771Z,99311.91
2022-09-28T11:13:10.998Z,99299.31
2022-09-28T11:15:47.018Z,99305.25
2022-09-28T11:18:32.573Z,99291.34
2022-09-28T11:21:18.298Z,99284.38
2022-09-28T11:24:06.495Z,99277.66
2022-09-28T11:26:49.912Z,99279.88
2022-09-28T11:29:43.411Z,99279.25
2022-09-28T11:32:47.107Z,99282.50
2022-09-28T11:35:32.874Z,99265.78
2022-09-28T11:38:19.269Z,99277.56
2022-09-28T11:41:12.350Z,99278.59
2022-09-28T11:44:08.604Z,99271.63
2022-09-28T11:46:58.576Z,99271.63
2022-09-28T11:49:40.261Z,99266.97
2022-09-28T11:52:25.444Z,99251.44
2022-09-28T11:55:10.591Z,99256.59
2022-09-28T11:58:01.722Z,99253.94
2022-09-28T12:00:48.582Z,99251.53
2022-09-28T12:03:46.495Z,99246.78
2022-09-28T12:06:33.272Z,99236.41
2022-09-28T12:09:19.938Z,99233.25
2022-09-28T12:12:32.713Z,99239.53
2022-09-28T12:15:42.153Z,99230.84
2022-09-28T12:18:27.502Z,99220.13
2022-09-28T12:21:19.399Z,99223.56
2022-09-28T12:23:55.684Z,99227.88
2022-09-28T12:26:49.180Z,99229.66
2022-09-28T12:29:29.825Z,99215.59
2022-09-28T12:32:30.421Z,99220.72
2022-09-28T12:35:13.748Z,99221.00
2022-09-28T12:38:16.599Z,99225.00
2022-09-28T12:41:17.019Z,99215.03
2022-09-28T12:44:13.401Z,99222.84
2022-09-28T12:47:02.297Z,99210.91
2022-09-28T12:53:05.648Z,99211.00
2022-09-28T12:55:59.022Z,99221.31
2022-09-28T12:59:00.665Z,99212.59
2022-09-28T13:02:12.366Z,99208.84
2022-09-28T13:05:12.920Z,99210.50
2022-09-28T13:08:00.832Z,99199.91
2022-09-28T13:10:57.869Z,99208.88
2022-09-28T13:13:59.889Z,99206.09
2022-09-28T13:16:51.298Z,99203.28
2022-09-28T13:19:48.943Z,99202.72
2022-09-28T13:22:44.405Z,99200.69
2022-09-28T13:25:22.820Z,99199.81
2022-09-28T13:28:13.377Z,99191.03
2022-09-28T13:31:02.517Z,99190.91
2022-09-28T13:33:41.237Z,99191.03
2022-09-28T13:36:29.465Z,99184.22
2022-09-28T13:39:03.656Z,99184.69
2022-09-28T13:41:40.599Z,99177.56
2022-09-28T13:44:36.753Z,99178.22
2022-09-28T13:47:26.715Z,99180.03
2022-09-28T13:50:13.354Z,99158.13
2022-09-28T13:52:58.163Z,99166.75
2022-09-28T13:55:40.923Z,99171.41
2022-09-28T13:58:41.681Z,99160.06
2022-09-28T14:01:14.769Z,99160.75
2022-09-28T14:04:25.355Z,99155.53
2022-09-28T14:07:19.790Z,99154.31
2022-09-28T14:10:51.234Z,99153.41
2022-09-28T14:14:01.157Z,99155.03
2022-09-28T14:16:38.686Z,99151.13
2022-09-28T14:19:15.801Z,99148.28
2022-09-28T14:21:55.507Z,99152.03
2022-09-28T14:24:42.139Z,99155.75
2022-09-28T14:27:38.454Z,99154.84
2022-09-28T14:30:17.810Z,99151.66
2022-09-28T14:33:00.104Z,99154.75
2022-09-28T14:35:49.321Z,99161.31
2022-09-28T14:38:49.531Z,99167.22
2022-09-28T14:41:51.196Z,99154.63
2022-09-28T14:44:28.032Z,99154.94
2022-09-28T14:47:27.282Z,99152.66
2022-09-28T14:50:24.807Z,99151.06
2022-09-28T14:53:10.672Z,99152.09
2022-09-28T14:55:51.056Z,99147.91
2022-09-28T14:58:27.876Z,99141.31
2022-09-28T15:01:32.075Z,99140.88
2022-09-28T15:04:15.294Z,99150.75
2022-09-28T15:06:58.543Z,99150.75
2022-09-28T15:09:32.606Z,99151.00
2022-09-28T15:12:28.448Z,99147.94
2022-09-28T15:15:08.716Z,99144.41
2022-09-28T15:17:46.324Z,99153.59
2022-09-28T15:20:26.757Z,99149.19
2022-09-28T15:23:04.474Z,99141.97
2022-09-28T15:25:39.301Z,99139.97
2022-09-28T15:28:34.131Z,99124.00
2022-09-28T15:31:21.502Z,99136.44
2022-09-28T15:34:15.935Z,99130.09
2022-09-28T15:36:48.478Z,99130.94
2022-09-28T15:39:39.828Z,99127.03
2022-09-28T15:42:13.788Z,99122.88
2022-09-28T15:45:06.968Z,99134.03
2022-09-28T15:47:40.283Z,99138.03
2022-09-28T15:50:21.877Z,99140.72
2022-09-28T15:52:53.111Z,99138.81
2022-09-28T15:55:31.191Z,99143.88
2022-09-28T15:58:18.250Z,99145.22
2022-09-28T16:00:52.878Z,99136.81
2022-09-28T16:03:32.698Z,99139.81
2022-09-28T16:06:13.017Z,99142.84
2022-09-28T16:08:46.149Z,99145.69
2022-09-28T16:11:28.059Z,99142.31
2022-09-28T16:14:21.469Z,99144.41
2022-09-28T16:16:59.953Z,99136.94
2022-09-28T16:19:45.949Z,99134.41
2022-09-28T16:22:28.713Z,99131.44
2022-09-28T16:25:11.064Z,99119.19
2022-09-28T16:27:50.529Z,99128.50
2022-09-28T16:30:26.809Z,99130.09
2022-09-28T16:33:36.898Z,99130.09
2022-09-28T16:36:19.140Z,99139.50
2022-09-28T16:38:55.042Z,99142.38
2022-09-28T16:41:31.948Z,99132.47
2022-09-28T16:44:17.387Z,99140.31
2022-09-28T16:46:47.051Z,99136.03
2022-09-28T16:49:34.140Z,99139.78
2022-09-28T16:52:12.095Z,99142.72
2022-09-28T16:55:17.649Z,99146.19
2022-09-28T16:57:59.503Z,99130.75
2022-09-28T17:00:35.683Z,99122.94
2022-09-28T17:03:20.212Z,99119.47
2022-09-28T17:05:56.633Z,99119.81
2022-09-28T17:08:25.277Z,99117.88
2022-09-28T17:11:24.547Z,99114.59
2022-09-28T17:14:03.816Z,99119.88
2022-09-28T17:17:07.317Z,99117.63
2022-09-28T17:19:44.512Z,99113.75
2022-09-28T17:22:22.845Z,99122.38
2022-09-28T17:24:58.684Z,99123.25
2022-09-28T17:27:34.811Z,99122.94
2022-09-28T17:30:09.912Z,99121.97
2022-09-28T17:32:50.793Z,99129.03
2022-09-28T17:35:33.204Z,99120.34
2022-09-28T17:38:08.561Z,99113.91
2022-09-28T17:40:48.358Z,99119.13
2022-09-28T17:43:24.024Z,99114.38
2022-09-28T17:45:55.822Z,99110.72
2022-09-28T17:48:33.750Z,99119.66
2022-09-28T17:51:10.236Z,99113.53
2022-09-28T17:53:40.501Z,99115.34
2022-09-28T17:56:15.950Z,99117.28
2022-09-28T17:58:50.657Z,99125.97
2022-09-28T18:01:34.188Z,99130.75
2022-09-28T18:04:13.224Z,99117.84
2022-09-28T18:07:03.940Z,99123.13
2022-09-28T18:09:42.848Z,99116.78
2022-09-28T18:12:19.357Z,99123.25
2022-09-28T18:14:53.347Z,99118.81
2022-09-28T18:17:29.473Z,99124.13
2022-09-28T18:20:09.951Z,99116.00
2022-09-28T18:22:42.737Z,99120.06
2022-09-28T18:25:24.624Z,99122.81
2022-09-28T18:28:02.996Z,99114.31
2022-09-28T18:30:40.967Z,99127.31
2022-09-28T18:33:17.103Z,99119.63
2022-09-28T18:35:59.732Z,99121.41
2022-09-28T18:38:40.451Z,99129.09
2022-09-28T18:41:24.112Z,99124.59
2022-09-28T18:44:01.052Z,99127.31
2022-09-28T18:46:47.387Z,99124.13
2022-09-28T18:49:23.560Z,99124.13
2022-09-28T18:52:04.864Z,99118.13
2022-09-28T18:54:43.712Z,99115.38
2022-09-28T18:57:17.730Z,99110.97
2022-09-28T18:59:54.723Z,99109.72
2022-09-28T19:02:25.836Z,99110.97
2022-09-28T19:05:09.419Z,99118.31
2022-09-28T19:07:48.640Z,99110.63
2022-09-28T19:10:23.055Z,99113.09
2022-09-28T19:13:06.367Z,99108.34
2022-09-28T19:15:40.283Z,99111.53
2022-09-28T19:18:21.357Z,99111.94
2022-09-28T19:20:57.183Z,99117.63
2022-09-28T19:23:30.681Z,99114.69
2022-09-28T19:26:06.957Z,99117.09
2022-09-28T19:28:46.010Z,99112.66
2022-09-28T19:31:29.093Z,99110.28
2022-09-28T19:34:02.405Z,99106.84
2022-09-28T19:36:38.372Z,99113.31
2022-09-28T19:39:15.307Z,99115.69
2022-09-28T19:41:54.411Z,99115.69
2022-09-28T19:44:36.514Z,99120.53
2022-09-28T19:47:17.339Z,99114.44
2022-09-28T19:49:55.967Z,99115.25
2022-09-28T19:52:38.103Z,99110.38
2022-09-28T19:55:19.149Z,99114.88
2022-09-28T19:57:58.934Z,99114.88
2022-09-28T20:00:35.141Z,99113.31
2022-09-28T20:03:13.520Z,99113.72
2022-09-28T20:05:46.941Z,99114.88
2022-09-28T20:08:31.702Z,99119.06
2022-09-28T20:11:13.179Z,99110.13
2022-09-28T20:13:52.887Z,99106.84
2022-09-28T20:16:27.591Z,99104.34
2022-09-28T20:19:07.387Z,99096.41
2022-09-28T20:21:43.848Z,99093.59
2022-09-28T20:24:17.321Z,99096.41
2022-09-28T20:26:50.138Z,99094.03
2022-09-28T20:29:38.183Z,99086.00
2022-09-28T20:32:17.176Z,99090.03
2022-09-28T20:34:58.182Z,99081.44
2022-09-28T20:37:31.348Z,99085.53
2022-09-28T20:40:07.575Z,99075.47
2022-09-28T20:42:42.533Z,99075.56
2022-09-28T20:45:24.282Z,99077.13
2022-09-28T20:48:00.599Z,99072.25
2022-09-28T20:50:41.338Z,99072.25
2022-09-28T20:53:18.216Z,99071.91
2022-09-28T20:56:14.339Z,99079.50
2022-09-28T20:58:55.116Z,99083.50
2022-09-28T21:01:36.736Z,99085.63
2022-09-28T21:04:14.760Z,99085.16
2022-09-28T21:06:48.534Z,99094.72
2022-09-28T21:09:30.183Z,99089.00
2022-09-28T21:12:12.819Z,99090.84
2022-09-28T21:14:49.316Z,99088.88
2022-09-28T21:17:27.939Z,99091.50
2022-09-28T21:20:06.382Z,99087.78
2022-09-28T21:22:43.747Z,99088.84
2022-09-28T21:25:19.871Z,99086.13
2022-09-28T21:27:50.744Z,99081.38
2022-09-28T21:30:31.723Z,99077.44
2022-09-28T21:33:10.560Z,99073.72
2022-09-28T21:35:46.284Z,99077.47
2022-09-28T21:38:22.052Z,99072.81
2022-09-28T21:41:02.441Z,99079.50
2022-09-28T21:43:40.931Z,99068.97
2022-09-28T21:46:17.639Z,99069.78
2022-09-28T21:48:53.837Z,99071.34
2022-09-28T21:51:33.278Z,99069.19
2022-09-28T21:54:06.719Z,99069.53
2022-09-28T21:56:45.185Z,99069.50
2022-09-28T21:59:23.426Z,99063.03
2022-09-28T22:01:59.259Z,99057.88
2022-09-28T22:04:29.234Z,99058.41
2022-09-28T22:07:03.313Z,99066.75
2022-09-28T22:09:39.101Z,99077.16
2022-09-28T22:12:17.629Z,99071.22
2022-09-28T22:14:54.023Z,99072.59
2022-09-28T22:17:24.945Z,99077.28
2022-09-28T22:19:58.515Z,99082.16
2022-09-28T22:22:32.191Z,99086.69
2022-09-28T22:25:13.497Z,99092.34
2022-09-28T22:27:54.319Z,99096.06
2022-09-28T22:30:30.555Z,99096.50
2022-09-28T22:33:06.675Z,99086.06
2022-09-28T22:35:42.787Z,99084.16
2022-09-28T22:38:16.228Z,99080.06
2022-09-28T22:40:58.526Z,99076.97
2022-09-28T22:43:37.009Z,99071.69
2022-09-28T22:46:27.143Z,99071.69
2022-09-28T22:49:12.352Z,99074.84
2022-09-28T22:51:48.137Z,99066.81
2022-09-28T22:54:23.872Z,99060.88
2022-09-28T22:57:00.488Z,99057.94
2022-09-28T22:59:27.990Z,99061.66
2022-09-28T23:02:06.236Z,99066.53
2022-09-28T23:04:47.001Z,99064.88
2022-09-28T23:07:21.565Z,99066.53
2022-09-28T23:09:59.794Z,99058.50
2022-09-28T23:12:42.213Z,99063.28
2022-09-28T23:15:21.051Z,99066.22
2022-09-28T23:18:00.425Z,99069.44
2022-09-28T23:20:38.386Z,99071.91
2022-09-28T23:23:16.418Z,99072.66
2022-09-28T23:25:49.633Z,99076.59
2022-09-28T23:28:39.732Z,99082.00
2022-09-28T23:31:17.192Z,99083.19
2022-09-28T23:34:09.238Z,99077.13
2022-09-28T23:36:44.678Z,99063.09
2022-09-28T23:39:23.360Z,99064.59
2022-09-28T23:41:54.214Z,99057.75
2022-09-28T23:44:31.295Z,99057.06
2022-09-28T23:47:04.296Z,99061.94
2022-09-28T23:49:36.583Z,99065.13
2022-09-28T23:52:15.004Z,99068.84
2022-09-28T23:54:48.613Z,99067.94
2022-09-28T23:57:29.286Z,99064.41
